Time;durP1;ratioP1;P1;durP2;ratioP2;P2;SDS_P1;SDS_P2;PMS_P1;PMS_P2;Temp;Humidity;BMP_temperature;BMP_pressure;BME280_temperature;BME280_humidity;BME280_pressure;Samples;Min_cycle;Max_cycle;Signal;HPM_P1;HPM_P2
2021/01/20 00:00:43;;;;;;;1.23;1.13;;;4.70;75.40;;;;;;5020400;28;20230;-82
2021/01/20 00:03:09;;;;;;;1.30;1.13;;;4.80;76.00;;;;;;5018019;28;20273;-85
2021/01/20 00:05:35;;;;;;;1.53;1.40;;;4.80;75.70;;;;;;5028419;28;20219;-79
2021/01/20 00:08:02;;;;;;;1.70;1.60;;;4.90;76.90;;;;;;5020033;28;20281;-80
2021/01/20 00:10:28;;;;;;;3.70;1.30;;;4.90;77.40;;;;;;5017308;28;20221;-79
2021/01/20 00:12:55;;;;;;;1.63;1.23;;;4.90;76.70;;;;;;5018045;28;20218;-81
2021/01/20 00:15:24;;;;;;;1.53;1.20;;;5.00;76.50;;;;;;5022935;28;20233;-82
2021/01/20 00:17:50;;;;;;;1.53;1.43;;;4.90;76.50;;;;;;5023413;28;20696;-80
2021/01/20 00:20:17;;;;;;;2.10;1.40;;;4.80;77.20;;;;;;5019392;28;20222;-79
2021/01/20 00:22:46;;;;;;;1.40;1.30;;;4.80;78.60;;;;;;5020569;28;20205;-79
2021/01/20 00:25:13;;;;;;;1.57;1.47;;;4.70;77.70;;;;;;5014010;28;20222;-84
2021/01/20 00:27:39;;;;;;;2.10;1.27;;;4.70;78.30;;;;;;5014553;28;20210;-81
2021/01/20 00:30:08;;;;;;;1.50;1.40;;;4.60;78.60;;;;;;5014482;28;20705;-80
2021/01/20 00:32:35;;;;;;;1.23;1.13;;;4.60;79.40;;;;;;5017765;28;20748;-79
2021/01/20 00:35:01;;;;;;;3.77;2.60;;;4.50;79.30;;;;;;5024342;28;20279;-79
2021/01/20 00:37:28;;;;;;;4.07;2.70;;;4.40;80.10;;;;;;5020820;28;20207;-81
2021/01/20 00:39:54;;;;;;;3.30;2.50;;;4.30;80.00;;;;;;5024969;28;20227;-78
2021/01/20 00:42:20;;;;;;;3.47;2.30;;;4.30;80.00;;;;;;5023605;28;20225;-78
2021/01/20 00:44:46;;;;;;;2.43;1.63;;;4.20;80.00;;;;;;5021453;28;20420;-79
2021/01/20 00:47:13;;;;;;;1.90;1.70;;;4.30;80.00;;;;;;5019499;28;20200;-80
2021/01/20 00:49:40;;;;;;;1.80;1.60;;;4.30;80.10;;;;;;5020964;28;20579;-81
2021/01/20 00:52:06;;;;;;;2.37;1.50;;;4.30;79.50;;;;;;5025617;28;20241;-80
2021/01/20 00:54:32;;;;;;;1.40;1.30;;;4.30;80.10;;;;;;5025422;28;20292;-81
2021/01/20 00:56:58;;;;;;;2.37;1.20;;;4.30;80.40;;;;;;5023305;28;20203;-79
2021/01/20 00:59:25;;;;;;;3.63;1.83;;;4.30;79.40;;;;;;5020368;28;20293;-79
2021/01/20 01:01:57;;;;;;;1.80;1.50;;;4.20;79.50;;;;;;5014413;28;20674;-79
2021/01/20 01:04:24;;;;;;;1.63;1.30;;;4.10;79.50;;;;;;5018612;28;20289;-81
2021/01/20 01:06:51;;;;;;;1.40;1.30;;;4.10;79.90;;;;;;5019133;28;20242;-79
2021/01/20 01:09:17;;;;;;;1.73;1.40;;;4.10;80.40;;;;;;5016567;28;20223;-79
2021/01/20 01:11:43;;;;;;;2.13;1.50;;;4.20;81.00;;;;;;5020069;28;20248;-82
2021/01/20 01:14:09;;;;;;;2.33;1.00;;;4.20;80.70;;;;;;5027068;28;20227;-78
2021/01/20 01:16:36;;;;;;;1.70;1.20;;;4.10;80.40;;;;;;5026210;28;20194;-80
2021/01/20 01:19:04;;;;;;;1.43;1.20;;;4.00;80.50;;;;;;5023018;28;20635;-79
2021/01/20 01:21:32;;;;;;;1.30;1.10;;;3.90;80.60;;;;;;5022173;28;20199;-80
2021/01/20 01:23:58;;;;;;;1.60;1.50;;;3.80;80.70;;;;;;5021254;28;20648;-82
2021/01/20 01:26:24;;;;;;;1.30;1.20;;;3.80;80.40;;;;;;5021682;28;20203;-81
2021/01/20 01:28:51;;;;;;;1.50;1.40;;;3.80;79.80;;;;;;5022586;28;20586;-79
2021/01/20 01:31:18;;;;;;;1.97;1.40;;;3.80;79.80;;;;;;5027455;28;20297;-78
2021/01/20 01:33:44;;;;;;;2.70;1.70;;;3.80;79.80;;;;;;5018137;28;20206;-79
2021/01/20 01:36:10;;;;;;;1.63;1.30;;;4.00;80.80;;;;;;5017487;28;20678;-82
2021/01/20 01:38:37;;;;;;;1.40;1.30;;;4.10;80.40;;;;;;5020975;28;20635;-79
2021/01/20 01:41:04;;;;;;;1.30;1.20;;;4.30;80.00;;;;;;5018079;28;20228;-82
2021/01/20 01:43:30;;;;;;;2.93;1.73;;;4.20;79.30;;;;;;5018116;28;20290;-79
2021/01/20 01:45:56;;;;;;;1.50;1.40;;;4.10;79.90;;;;;;5020715;28;20275;-80
2021/01/20 01:48:23;;;;;;;1.40;1.30;;;4.20;81.30;;;;;;5021802;28;20270;-79
2021/01/20 01:50:49;;;;;;;1.40;1.30;;;4.30;79.80;;;;;;5038444;28;20329;-79
2021/01/20 01:53:16;;;;;;;1.93;1.40;;;4.10;79.40;;;;;;5027349;28;20223;-79
2021/01/20 01:55:43;;;;;;;1.47;1.37;;;4.10;81.40;;;;;;5015833;28;20218;-80
2021/01/20 01:58:09;;;;;;;1.40;1.30;;;4.00;80.60;;;;;;5019101;28;20198;-83
2021/01/20 02:00:37;;;;;;;1.53;1.40;;;3.90;81.20;;;;;;5020172;28;20260;-79
2021/01/20 02:03:04;;;;;;;1.77;1.40;;;3.90;81.70;;;;;;5019694;28;20212;-79
2021/01/20 02:05:30;;;;;;;2.10;1.40;;;4.00;83.00;;;;;;5023224;28;20230;-78
2021/01/20 02:07:57;;;;;;;2.40;1.33;;;4.00;82.40;;;;;;5018947;28;20200;-79
2021/01/20 02:10:23;;;;;;;1.10;1.00;;;4.00;83.20;;;;;;5021554;28;20226;-81
2021/01/20 02:13:08;;;;;;;1.17;1.00;;;3.90;82.00;;;;;;5016479;28;20223;-79
2021/01/20 02:15:42;;;;;;;1.17;0.93;;;3.80;82.00;;;;;;5020635;28;20237;-79
2021/01/20 02:18:13;;;;;;;1.37;1.10;;;3.70;83.50;;;;;;5023687;28;20206;-79
2021/01/20 02:21:09;;;;;;;1.40;1.30;;;3.60;83.70;;;;;;5019436;28;20279;-80
2021/01/20 02:23:40;;;;;;;2.97;1.40;;;3.50;84.00;;;;;;5016083;28;20579;-79
2021/01/20 02:26:15;;;;;;;1.53;1.30;;;3.40;83.60;;;;;;5014656;28;20731;-80
2021/01/20 02:28:56;;;;;;;1.50;1.30;;;3.30;84.10;;;;;;5014598;28;20243;-81
2021/01/20 02:31:26;;;;;;;1.37;1.27;;;3.30;85.00;;;;;;5018884;28;20203;-80
2021/01/20 02:33:58;;;;;;;1.97;1.60;;;3.20;84.80;;;;;;5023723;28;20202;-82
2021/01/20 02:36:25;;;;;;;1.57;1.40;;;3.20;85.10;;;;;;5026509;28;20734;-80
2021/01/20 02:38:52;;;;;;;1.60;1.50;;;3.10;84.60;;;;;;5026952;28;20575;-79
2021/01/20 02:41:26;;;;;;;1.60;1.50;;;3.10;87.00;;;;;;5028416;28;20565;-81
2021/01/20 02:43:52;;;;;;;1.70;1.60;;;3.10;86.20;;;;;;5020748;28;20207;-80
2021/01/20 02:46:20;;;;;;;1.47;1.37;;;3.00;86.30;;;;;;5020811;28;20190;-78
2021/01/20 02:48:48;;;;;;;1.30;1.20;;;3.00;87.60;;;;;;5023310;28;20199;-79
2021/01/20 02:51:20;;;;;;;1.47;1.37;;;2.90;87.70;;;;;;5026767;28;20195;-79
2021/01/20 02:53:47;;;;;;;1.70;1.60;;;2.90;87.70;;;;;;5023431;28;20203;-80
2021/01/20 02:56:17;;;;;;;1.90;1.30;;;2.90;87.70;;;;;;5017968;28;20203;-78
2021/01/20 02:58:47;;;;;;;1.87;1.37;;;2.80;87.60;;;;;;5024907;28;20206;-79
2021/01/20 03:01:15;;;;;;;2.67;1.20;;;2.80;87.60;;;;;;5020580;28;20207;-81
2021/01/20 03:03:43;;;;;;;1.53;1.43;;;2.80;87.60;;;;;;5019384;28;20612;-83
2021/01/20 03:06:11;;;;;;;2.67;1.13;;;2.90;87.70;;;;;;5024816;28;20209;-79
2021/01/20 03:08:38;;;;;;;1.57;1.20;;;2.90;87.70;;;;;;5026839;28;20546;-80
2021/01/20 03:11:06;;;;;;;1.60;1.43;;;2.90;87.70;;;;;;5022697;28;20314;-78
2021/01/20 03:13:35;;;;;;;1.20;1.03;;;2.90;87.60;;;;;;5019654;28;20223;-79
2021/01/20 03:16:03;;;;;;;2.77;1.30;;;2.90;87.70;;;;;;5020800;28;20327;-80
2021/01/20 03:18:29;;;;;;;1.20;1.10;;;2.90;87.70;;;;;;5022660;28;20203;-79
2021/01/20 03:20:56;;;;;;;1.30;1.20;;;3.00;87.70;;;;;;5025913;28;20233;-79
2021/01/20 03:23:23;;;;;;;2.10;1.40;;;3.00;85.80;;;;;;5020584;28;20517;-79
2021/01/20 03:25:49;;;;;;;1.20;1.00;;;3.00;86.10;;;;;;5026508;28;20676;-78
2021/01/20 03:28:15;;;;;;;1.30;1.20;;;2.90;85.80;;;;;;5022952;28;20199;-81
2021/01/20 03:30:42;;;;;;;1.37;1.27;;;2.90;85.40;;;;;;5020735;28;20234;-81
2021/01/20 03:33:08;;;;;;;2.33;1.33;;;3.00;86.10;;;;;;5021772;28;20222;-79
2021/01/20 03:35:35;;;;;;;1.17;1.07;;;3.00;85.80;;;;;;5027082;28;20222;-78
2021/01/20 03:38:01;;;;;;;1.20;1.10;;;3.00;85.60;;;;;;5020374;28;20216;-79
2021/01/20 03:40:28;;;;;;;1.10;1.00;;;3.10;85.50;;;;;;5029037;28;20272;-78
2021/01/20 03:42:55;;;;;;;1.40;1.23;;;3.20;84.80;;;;;;5021477;28;20240;-81
2021/01/20 03:45:21;;;;;;;1.20;1.10;;;3.20;84.10;;;;;;5022567;28;20606;-80
2021/01/20 03:47:47;;;;;;;1.50;1.40;;;3.10;83.90;;;;;;5017059;28;20206;-81
2021/01/20 03:50:14;;;;;;;1.30;1.20;;;3.10;84.60;;;;;;5021126;28;20219;-78
2021/01/20 03:52:40;;;;;;;1.23;1.13;;;3.10;84.50;;;;;;5024542;28;20219;-79
2021/01/20 03:55:07;;;;;;;1.20;1.10;;;3.00;84.70;;;;;;5027068;28;20224;-82
2021/01/20 03:57:34;;;;;;;1.47;1.10;;;3.00;84.90;;;;;;5015370;28;20199;-79
2021/01/20 04:00:00;;;;;;;1.50;1.40;;;3.00;85.50;;;;;;5025760;28;20241;-78
2021/01/20 04:02:27;;;;;;;1.20;1.10;;;3.10;85.10;;;;;;5030638;28;20221;-81
2021/01/20 04:04:53;;;;;;;1.30;1.20;;;3.00;85.40;;;;;;5022523;28;20226;-80
2021/01/20 04:07:19;;;;;;;1.10;1.00;;;3.00;85.10;;;;;;5026128;28;20272;-79
2021/01/20 04:09:46;;;;;;;1.30;1.20;;;2.90;85.20;;;;;;5019692;28;20226;-82
2021/01/20 04:12:12;;;;;;;1.10;1.00;;;2.80;85.90;;;;;;5038553;28;20229;-82
2021/01/20 04:14:39;;;;;;;1.83;1.30;;;2.70;87.50;;;;;;5040492;28;20348;-80
2021/01/20 04:17:05;;;;;;;1.07;1.07;;;2.70;87.50;;;;;;5031108;28;20198;-80
2021/01/20 04:19:32;;;;;;;0.83;0.83;;;2.70;86.80;;;;;;5023835;28;20253;-80
2021/01/20 04:21:58;;;;;;;1.33;1.23;;;2.70;87.00;;;;;;5032454;28;20208;-80
2021/01/20 04:24:24;;;;;;;1.20;1.10;;;2.70;87.50;;;;;;5022340;28;20226;-79
2021/01/20 04:26:51;;;;;;;1.50;1.40;;;2.60;87.50;;;;;;5024564;28;20294;-79
2021/01/20 04:29:17;;;;;;;1.40;1.27;;;2.70;87.50;;;;;;5025830;28;20241;-81
2021/01/20 04:31:44;;;;;;;1.07;1.00;;;2.60;87.50;;;;;;5025063;28;20227;-79
2021/01/20 04:34:11;;;;;;;1.50;1.37;;;2.60;87.50;;;;;;5019304;28;20214;-80
2021/01/20 04:36:37;;;;;;;1.40;1.10;;;2.50;87.40;;;;;;5016200;28;20206;-80
2021/01/20 04:39:04;;;;;;;1.20;1.10;;;2.50;87.40;;;;;;5017364;28;20241;-79
2021/01/20 04:41:33;;;;;;;1.10;1.00;;;2.40;87.40;;;;;;5020950;28;20272;-82
2021/01/20 04:44:00;;;;;;;1.43;1.33;;;2.30;88.00;;;;;;5019296;28;20276;-79
2021/01/20 04:46:27;;;;;;;2.13;1.30;;;2.30;87.50;;;;;;5019706;28;20186;-79
2021/01/20 04:48:54;;;;;;;2.00;1.80;;;2.30;87.30;;;;;;5021400;28;20205;-81
2021/01/20 04:51:24;;;;;;;1.30;1.20;;;2.30;87.30;;;;;;5028715;28;20205;-82
2021/01/20 04:53:53;;;;;;;1.87;1.53;;;2.30;87.30;;;;;;5025205;28;20199;-78
2021/01/20 04:56:20;;;;;;;1.10;1.00;;;2.30;87.30;;;;;;5019326;28;20190;-77
2021/01/20 04:58:46;;;;;;;1.60;1.50;;;2.30;87.20;;;;;;5018465;28;20199;-80
2021/01/20 05:01:13;;;;;;;2.30;1.20;;;2.30;87.30;;;;;;5021337;28;20525;-79
2021/01/20 05:03:41;;;;;;;1.20;1.10;;;2.30;87.30;;;;;;5016098;28;20205;-80
2021/01/20 05:06:10;;;;;;;1.17;1.07;;;2.30;87.30;;;;;;5017555;28;20257;-82
2021/01/20 05:08:37;;;;;;;1.30;1.20;;;2.30;87.20;;;;;;5021072;28;20225;-78
2021/01/20 05:11:03;;;;;;;1.63;1.20;;;2.20;87.20;;;;;;5019886;28;20226;-76
2021/01/20 05:13:32;;;;;;;1.50;1.40;;;2.20;87.20;;;;;;5020926;28;20215;-78
2021/01/20 05:15:59;;;;;;;1.70;1.10;;;2.20;87.20;;;;;;5016632;28;20706;-79
2021/01/20 05:18:25;;;;;;;1.23;1.13;;;2.00;87.60;;;;;;5013417;28;20249;-83
2021/01/20 05:20:52;;;;;;;1.57;1.20;;;2.00;89.50;;;;;;5022062;28;20235;-77
2021/01/20 05:23:25;;;;;;;1.67;1.40;;;1.90;89.10;;;;;;5020186;28;20199;-81
2021/01/20 05:25:51;;;;;;;1.63;1.53;;;2.00;89.10;;;;;;5020972;28;20544;-78
2021/01/20 05:28:19;;;;;;;1.93;1.20;;;2.00;89.30;;;;;;5018706;28;20205;-79
2021/01/20 05:30:47;;;;;;;2.00;1.60;;;2.10;89.70;;;;;;5019030;28;20222;-78
2021/01/20 05:33:15;;;;;;;1.50;1.40;;;2.00;89.40;;;;;;5026762;28;20225;-76
2021/01/20 05:35:42;;;;;;;1.73;1.23;;;2.00;90.00;;;;;;5022648;28;20680;-78
2021/01/20 05:38:09;;;;;;;3.33;2.50;;;1.90;89.60;;;;;;5021884;28;20388;-81
2021/01/20 05:40:36;;;;;;;3.07;2.37;;;1.90;90.10;;;;;;5012654;28;20218;-77
2021/01/20 05:43:04;;;;;;;1.80;1.50;;;2.00;90.10;;;;;;5013412;28;20556;-75
2021/01/20 05:45:30;;;;;;;1.97;1.50;;;1.90;90.00;;;;;;5015793;28;20225;-78
2021/01/20 05:48:00;;;;;;;2.03;1.33;;;1.90;89.80;;;;;;5025456;28;20858;-78
2021/01/20 05:50:27;;;;;;;1.57;1.17;;;2.00;90.10;;;;;;5022862;28;20519;-77
2021/01/20 05:53:10;;;;;;;1.50;1.40;;;1.90;90.10;;;;;;5026688;28;20513;-80
2021/01/20 05:55:38;;;;;;;1.50;1.40;;;1.90;90.10;;;;;;5022941;28;20225;-79
2021/01/20 05:58:05;;;;;;;1.40;1.23;;;1.80;90.30;;;;;;5016350;28;20202;-76
2021/01/20 06:00:32;;;;;;;2.73;1.60;;;1.90;90.30;;;;;;5021150;28;20710;-79
2021/01/20 06:02:59;;;;;;;7.80;4.83;;;1.80;90.30;;;;;;5015599;28;20660;-76
2021/01/20 06:05:26;;;;;;;9.87;5.27;;;1.80;90.60;;;;;;5021682;28;20232;-77
2021/01/20 06:07:53;;;;;;;11.43;6.17;;;1.70;90.60;;;;;;5019079;28;20202;-78
2021/01/20 06:10:21;;;;;;;10.33;6.20;;;1.70;90.40;;;;;;5024348;28;20277;-81
2021/01/20 06:12:49;;;;;;;11.53;6.37;;;1.70;90.50;;;;;;5021603;28;20660;-77
2021/01/20 06:15:15;;;;;;;11.83;7.13;;;1.60;90.80;;;;;;5016728;28;20227;-78
2021/01/20 06:17:43;;;;;;;16.27;9.20;;;1.60;91.10;;;;;;5021669;28;20239;-83
2021/01/20 06:20:11;;;;;;;19.80;12.90;;;1.60;91.00;;;;;;5018854;28;20293;-78
2021/01/20 06:22:46;;;;;;;18.23;13.00;;;1.70;90.90;;;;;;5022734;28;20202;-78
2021/01/20 06:25:19;;;;;;;15.23;10.80;;;1.70;90.80;;;;;;5023647;28;20244;-80
2021/01/20 06:27:53;;;;;;;15.30;9.77;;;1.70;91.20;;;;;;5020370;28;20202;-78
2021/01/20 06:30:24;;;;;;;13.90;9.10;;;1.70;90.90;;;;;;5022430;28;20242;-78
2021/01/20 06:32:52;;;;;;;9.77;7.03;;;1.60;91.10;;;;;;5020466;28;20223;-83
2021/01/20 06:35:18;;;;;;;10.13;7.20;;;1.60;91.00;;;;;;5022723;28;20244;-81
2021/01/20 06:37:46;;;;;;;7.80;5.90;;;1.60;90.90;;;;;;5020946;28;20211;-82
2021/01/20 06:40:39;;;;;;;7.37;5.10;;;1.50;91.10;;;;;;5014303;28;20227;-79
2021/01/20 06:43:34;;;;;;;7.60;4.47;;;1.60;91.10;;;;;;5026214;28;20248;-83
2021/01/20 06:46:21;;;;;;;8.00;4.07;;;1.60;91.00;;;;;;5013205;28;20693;-78
2021/01/20 06:49:10;;;;;;;4.17;2.97;;;1.70;90.80;;;;;;5022531;28;20202;-81
2021/01/20 06:51:37;;;;;;;5.10;2.90;;;1.80;90.70;;;;;;5018661;28;20194;-82
2021/01/20 06:54:11;;;;;;;4.00;2.20;;;1.80;90.80;;;;;;5015815;28;20575;-81
2021/01/20 06:56:44;;;;;;;2.83;2.23;;;1.80;90.60;;;;;;5009921;28;20214;-78
2021/01/20 06:59:15;;;;;;;3.77;1.90;;;1.90;90.50;;;;;;5012312;28;20602;-78
2021/01/20 07:01:42;;;;;;;6.00;2.07;;;1.90;90.40;;;;;;5018388;28;20253;-81
2021/01/20 07:04:08;;;;;;;4.93;2.33;;;1.90;90.60;;;;;;5022125;28;20234;-77
2021/01/20 07:06:44;;;;;;;3.30;1.80;;;2.00;90.30;;;;;;5014384;28;20205;-80
2021/01/20 07:09:13;;;;;;;2.97;2.20;;;2.00;90.30;;;;;;5012434;28;20232;-84
2021/01/20 07:12:08;;;;;;;3.97;2.00;;;2.00;90.20;;;;;;5020382;28;20252;-78
2021/01/20 07:14:36;;;;;;;4.23;2.13;;;2.10;90.30;;;;;;5020067;28;20679;-79
2021/01/20 07:17:06;;;;;;;2.53;2.10;;;2.10;90.30;;;;;;5014507;28;20685;-80
2021/01/20 07:19:33;;;;;;;3.93;1.70;;;2.10;90.20;;;;;;5014565;28;20237;-78
2021/01/20 07:22:00;;;;;;;2.47;2.00;;;2.10;90.10;;;;;;5023513;28;20536;-80
2021/01/20 07:24:26;;;;;;;4.97;2.40;;;2.00;90.30;;;;;;5031821;28;20286;-80
2021/01/20 07:26:52;;;;;;;4.63;2.37;;;2.20;90.40;;;;;;5016076;28;20338;-79
2021/01/20 07:29:21;;;;;;;3.73;2.67;;;2.30;90.00;;;;;;5018067;28;20305;-86
2021/01/20 07:31:50;;;;;;;3.03;2.10;;;2.40;89.50;;;;;;5014350;28;20199;-81
2021/01/20 07:34:17;;;;;;;1.73;1.63;;;2.50;87.70;;;;;;5012909;28;20567;-81
2021/01/20 07:36:44;;;;;;;2.53;1.60;;;2.60;87.50;;;;;;5018772;28;20199;-82
2021/01/20 07:39:20;;;;;;;6.07;1.73;;;2.60;87.50;;;;;;5026299;28;20693;-79
2021/01/20 07:41:52;;;;;;;5.23;1.70;;;2.60;87.50;;;;;;5015948;28;20202;-82
2021/01/20 07:44:18;;;;;;;2.37;1.57;;;2.70;87.50;;;;;;5020222;28;20261;-79
2021/01/20 07:46:44;;;;;;;3.30;1.70;;;2.80;87.60;;;;;;5025624;28;20199;-77
2021/01/20 07:49:12;;;;;;;1.80;1.50;;;2.90;87.70;;;;;;5033348;28;20633;-78
2021/01/20 07:51:39;;;;;;;2.50;1.80;;;2.90;85.90;;;;;;5020913;28;20222;-84
2021/01/20 07:54:07;;;;;;;2.43;1.57;;;3.00;85.30;;;;;;5018942;28;20372;-80
2021/01/20 07:56:34;;;;;;;4.10;1.53;;;3.10;86.00;;;;;;5019646;28;20257;-79
2021/01/20 07:59:17;;;;;;;2.23;1.77;;;3.10;85.40;;;;;;5024689;28;20609;-82
2021/01/20 08:01:44;;;;;;;2.53;2.03;;;3.20;85.10;;;;;;5013790;28;20218;-78
2021/01/20 08:04:26;;;;;;;4.80;2.00;;;3.40;85.00;;;;;;5021139;28;20222;-79
2021/01/20 08:06:53;;;;;;;3.07;1.80;;;3.70;83.40;;;;;;5019203;28;20209;-78
2021/01/20 08:09:20;;;;;;;2.23;1.80;;;3.70;82.10;;;;;;5024305;28;20289;-79
2021/01/20 08:11:47;;;;;;;3.80;2.13;;;3.60;82.00;;;;;;5020000;28;20226;-80
2021/01/20 08:14:15;;;;;;;2.37;1.83;;;3.70;82.80;;;;;;5021244;28;20264;-78
2021/01/20 08:16:42;;;;;;;4.90;1.70;;;3.80;82.30;;;;;;5021087;28;20655;-78
2021/01/20 08:19:08;;;;;;;4.17;1.90;;;4.10;80.80;;;;;;5013116;28;20285;-80
2021/01/20 08:21:36;;;;;;;5.77;2.17;;;4.20;79.10;;;;;;5017939;28;20203;-79
2021/01/20 08:24:07;;;;;;;7.47;2.20;;;4.40;78.90;;;;;;5017504;28;20211;-78
2021/01/20 08:26:34;;;;;;;3.07;2.00;;;4.50;78.80;;;;;;5014595;28;20210;-78
2021/01/20 08:29:02;;;;;;;3.73;2.27;;;4.70;77.50;;;;;;5015508;28;20678;-81
2021/01/20 08:31:28;;;;;;;4.90;1.90;;;4.80;77.70;;;;;;5014432;28;20458;-81
2021/01/20 08:34:12;;;;;;;5.83;2.67;;;4.90;76.40;;;;;;5021208;28;20214;-82
2021/01/20 08:36:51;;;;;;;3.93;2.50;;;5.10;76.10;;;;;;5016249;28;20264;-80
2021/01/20 08:39:17;;;;;;;3.83;2.00;;;5.20;73.10;;;;;;5016903;28;20595;-83
2021/01/20 08:42:18;;;;;;;4.23;2.53;;;5.40;74.60;;;;;;5024687;28;20278;-84
2021/01/20 08:45:04;;;;;;;3.20;1.93;;;5.70;72.00;;;;;;5023330;28;20227;-82
2021/01/20 08:47:32;;;;;;;3.97;2.00;;;5.90;70.70;;;;;;5024745;28;20194;-84
2021/01/20 08:49:58;;;;;;;3.50;1.97;;;6.20;71.00;;;;;;5021769;28;20242;-89
2021/01/20 08:52:41;;;;;;;3.93;2.17;;;6.40;68.50;;;;;;5018976;28;20711;-84
2021/01/20 08:55:09;;;;;;;3.47;1.97;;;7.00;67.00;;;;;;5023360;28;20228;-84
2021/01/20 08:57:35;;;;;;;3.88;2.35;;;7.30;65.60;;;;;;5029297;28;20186;-89
2021/01/20 09:00:02;;;;;;;2.08;1.85;;;7.80;59.90;;;;;;5038746;28;20307;-83
2021/01/20 09:02:29;;;;;;;2.75;1.85;;;8.10;57.90;;;;;;5036229;28;20199;-84
2021/01/20 09:04:55;;;;;;;2.78;1.80;;;8.60;55.30;;;;;;5026266;28;20287;-83
2021/01/20 09:07:21;;;;;;;2.70;1.80;;;9.00;53.10;;;;;;5028159;28;20297;-84
2021/01/20 09:09:49;;;;;;;2.15;1.88;;;9.00;50.30;;;;;;5023898;28;20313;-84
2021/01/20 09:12:16;;;;;;;4.03;2.00;;;9.80;49.30;;;;;;5027823;28;20712;-86
2021/01/20 09:14:42;;;;;;;4.50;1.80;;;10.50;46.80;;;;;;5020668;28;20313;-84
2021/01/20 09:17:09;;;;;;;1.95;1.70;;;10.80;45.30;;;;;;5034179;28;20583;-83
2021/01/20 09:19:44;;;;;;;3.53;1.98;;;10.80;42.40;;;;;;5030644;28;20322;-85
2021/01/20 09:22:17;;;;;;;3.17;1.80;;;11.20;40.60;;;;;;5033129;28;20266;-85
2021/01/20 09:24:43;;;;;;;5.93;2.17;;;11.10;40.90;;;;;;5024691;28;20267;-85
2021/01/20 09:27:12;;;;;;;15.27;2.17;;;11.30;40.70;;;;;;5031528;28;20700;-86
2021/01/20 09:29:38;;;;;;;8.77;2.60;;;10.90;41.00;;;;;;5029321;28;20226;-84
2021/01/20 09:32:06;;;;;;;2.28;2.08;;;11.80;40.40;;;;;;5020207;28;20205;-85
2021/01/20 09:34:33;;;;;;;2.13;1.70;;;11.80;38.60;;;;;;5023224;28;20237;-84
2021/01/20 09:37:00;;;;;;;2.42;2.00;;;12.50;38.40;;;;;;5023185;28;20682;-85
2021/01/20 09:39:26;;;;;;;2.40;2.08;;;13.00;37.50;;;;;;5018631;28;20861;-87
2021/01/20 09:41:53;;;;;;;4.70;1.65;;;13.00;37.90;;;;;;5013152;28;20225;-82
2021/01/20 09:44:20;;;;;;;1.70;1.60;;;13.40;37.40;;;;;;5024360;28;20305;-84
2021/01/20 09:46:46;;;;;;;1.73;1.55;;;14.00;35.50;;;;;;5029313;28;20215;-86
2021/01/20 09:49:12;;;;;;;3.47;1.90;;;14.60;35.00;;;;;;5023405;28;20226;-83
2021/01/20 09:51:39;;;;;;;4.07;1.65;;;14.80;34.40;;;;;;5026501;28;20267;-82
2021/01/20 09:54:07;;;;;;;3.60;1.73;;;14.60;35.10;;;;;;5029430;28;20658;-82
2021/01/20 09:56:33;;;;;;;2.53;1.70;;;14.40;34.30;;;;;;5021540;28;20245;-82
2021/01/20 09:59:00;;;;;;;1.90;1.70;;;14.00;34.10;;;;;;5035857;28;20230;-82
2021/01/20 10:01:27;;;;;;;2.30;1.70;;;13.80;35.50;;;;;;5028325;28;20722;-89
2021/01/20 10:03:54;;;;;;;4.75;2.10;;;13.30;35.60;;;;;;5014937;28;20613;-82
2021/01/20 10:06:21;;;;;;;1.90;1.70;;;13.50;36.20;;;;;;5024816;28;20230;-81
2021/01/20 10:08:47;;;;;;;2.22;1.55;;;13.80;35.90;;;;;;5029186;28;20203;-82
2021/01/20 10:11:13;;;;;;;6.50;2.00;;;13.80;36.20;;;;;;5030277;28;20286;-81
2021/01/20 10:13:40;;;;;;;3.47;1.90;;;13.80;36.20;;;;;;5021498;28;20330;-81
2021/01/20 10:16:06;;;;;;;2.95;1.60;;;13.70;36.10;;;;;;5025603;28;20250;-81
2021/01/20 10:18:33;;;;;;;2.10;1.90;;;13.20;35.10;;;;;;5024215;28;20317;-81
2021/01/20 10:20:59;;;;;;;1.83;1.55;;;13.50;35.70;;;;;;5026475;28;20309;-83
2021/01/20 10:23:26;;;;;;;1.80;1.70;;;13.90;34.90;;;;;;5018604;28;20218;-84
2021/01/20 10:25:52;;;;;;;8.25;1.83;;;13.30;34.40;;;;;;5017851;28;20357;-81
2021/01/20 10:28:19;;;;;;;1.95;1.58;;;13.50;35.90;;;;;;5017439;28;20207;-84
2021/01/20 10:30:45;;;;;;;1.90;1.60;;;13.90;35.60;;;;;;5013883;28;20229;-84
2021/01/20 10:33:12;;;;;;;1.70;1.60;;;14.30;33.20;;;;;;5022831;28;20320;-81
2021/01/20 10:35:40;;;;;;;2.47;1.70;;;13.90;33.50;;;;;;5017920;28;20308;-82
2021/01/20 10:38:06;;;;;;;2.25;1.75;;;14.40;33.10;;;;;;5021881;28;20447;-81
2021/01/20 10:40:32;;;;;;;1.83;1.73;;;14.60;32.10;;;;;;5015170;28;20282;-84
2021/01/20 10:42:58;;;;;;;2.83;1.90;;;14.50;32.40;;;;;;5016904;28;20289;-82
2021/01/20 10:45:25;;;;;;;5.90;2.13;;;15.20;32.10;;;;;;5018537;28;20249;-81
2021/01/20 10:47:51;;;;;;;2.72;1.92;;;15.30;33.80;;;;;;5020612;28;20207;-81
2021/01/20 10:50:17;;;;;;;3.20;1.92;;;15.50;31.60;;;;;;5016964;28;20215;-81
2021/01/20 10:52:45;;;;;;;2.55;1.90;;;15.50;31.70;;;;;;5016203;28;20318;-86
2021/01/20 10:55:13;;;;;;;2.28;1.92;;;15.20;31.40;;;;;;5023744;28;20225;-85
2021/01/20 10:57:39;;;;;;;1.88;1.77;;;15.00;31.70;;;;;;5023045;28;20206;-83
2021/01/20 11:00:07;;;;;;;7.03;2.53;;;14.90;32.30;;;;;;5015548;28;20321;-81
2021/01/20 11:02:34;;;;;;;3.63;2.05;;;14.70;32.30;;;;;;5021204;28;20240;-81
2021/01/20 11:05:00;;;;;;;2.72;1.70;;;14.70;33.10;;;;;;5017238;28;20302;-81
2021/01/20 11:07:26;;;;;;;2.47;1.45;;;14.10;31.90;;;;;;5018523;28;20564;-82
2021/01/20 11:09:56;;;;;;;3.20;1.80;;;13.60;32.50;;;;;;5022857;28;20234;-85
2021/01/20 11:12:27;;;;;;;1.45;1.33;;;13.30;33.20;;;;;;5027476;28;20478;-80
2021/01/20 11:14:53;;;;;;;2.80;1.85;;;13.10;33.60;;;;;;5027624;28;20238;-83
2021/01/20 11:17:20;;;;;;;1.50;1.40;;;12.90;33.40;;;;;;5024498;28;20223;-84
2021/01/20 11:19:46;;;;;;;1.95;1.70;;;12.70;34.20;;;;;;5020857;28;20230;-82
2021/01/20 11:22:12;;;;;;;3.70;1.77;;;12.70;35.90;;;;;;5026777;28;20203;-88
2021/01/20 11:24:38;;;;;;;2.05;1.60;;;12.60;36.10;;;;;;5020883;28;20242;-84
2021/01/20 11:27:06;;;;;;;2.22;1.52;;;12.60;36.00;;;;;;5032854;28;20206;-84
2021/01/20 11:29:32;;;;;;;1.52;1.42;;;12.50;36.70;;;;;;5032410;28;21493;-85
2021/01/20 11:32:06;;;;;;;2.58;1.52;;;12.30;36.30;;;;;;5033911;28;20199;-85
2021/01/20 11:34:41;;;;;;;1.55;1.45;;;11.80;35.80;;;;;;5036436;28;20264;-82
2021/01/20 11:37:08;;;;;;;1.52;1.42;;;11.60;37.30;;;;;;5027257;28;20198;-84
2021/01/20 11:39:36;;;;;;;3.63;1.52;;;11.40;36.40;;;;;;5024854;28;20245;-86
2021/01/20 11:42:02;;;;;;;2.03;1.55;;;11.20;36.60;;;;;;5026894;28;20459;-83
2021/01/20 11:44:31;;;;;;;3.40;1.45;;;11.10;38.00;;;;;;5031850;28;20309;-86
2021/01/20 11:46:59;;;;;;;4.97;1.77;;;11.30;38.00;;;;;;5033973;28;20194;-85
2021/01/20 11:49:25;;;;;;;3.15;1.70;;;11.30;37.50;;;;;;5026613;28;20222;-84
2021/01/20 11:51:51;;;;;;;2.35;1.63;;;11.20;37.80;;;;;;5026982;28;20222;-84
2021/01/20 11:54:17;;;;;;;2.28;1.75;;;11.20;37.70;;;;;;5025963;28;20286;-82
2021/01/20 11:56:44;;;;;;;2.65;1.85;;;11.20;39.30;;;;;;5027655;28;20376;-86
2021/01/20 11:59:10;;;;;;;2.83;1.52;;;11.40;39.20;;;;;;5028140;28;20234;-86
2021/01/20 12:01:37;;;;;;;2.25;1.80;;;11.20;38.30;;;;;;5025758;28;20235;-85
2021/01/20 12:04:06;;;;;;;2.90;1.95;;;10.90;38.00;;;;;;5031797;28;20225;-86
2021/01/20 12:06:32;;;;;;;6.38;1.60;;;10.80;38.80;;;;;;5027059;28;20938;-84
2021/01/20 12:08:58;;;;;;;3.80;1.70;;;10.70;38.60;;;;;;5026970;28;20270;-86
2021/01/20 12:11:25;;;;;;;2.75;1.55;;;10.60;38.70;;;;;;5033163;28;20226;-84
2021/01/20 12:13:52;;;;;;;4.00;1.77;;;10.70;39.10;;;;;;5025267;28;20219;-85
2021/01/20 12:16:19;;;;;;;3.30;1.98;;;10.80;38.70;;;;;;5021565;28;20238;-86
2021/01/20 12:18:46;;;;;;;2.22;1.55;;;10.90;38.80;;;;;;5028735;28;20211;-85
2021/01/20 12:21:13;;;;;;;2.47;1.63;;;10.80;38.70;;;;;;5024625;28;20430;-89
2021/01/20 12:23:39;;;;;;;6.80;1.90;;;10.80;38.90;;;;;;5025264;28;20210;-85
2021/01/20 12:26:05;;;;;;;5.63;1.80;;;10.70;39.50;;;;;;5027959;28;20317;-87
2021/01/20 12:28:32;;;;;;;2.55;2.00;;;10.70;39.30;;;;;;5027067;28;20281;-86
2021/01/20 12:30:58;;;;;;;8.93;3.10;;;10.70;39.90;;;;;;5022961;28;20622;-86
2021/01/20 12:33:26;;;;;;;9.30;3.42;;;10.70;43.20;;;;;;5030933;28;20218;-86
2021/01/20 12:35:53;;;;;;;11.32;5.05;;;10.60;44.00;;;;;;5024567;28;20233;-85
2021/01/20 12:38:20;;;;;;;5.47;3.42;;;10.50;45.40;;;;;;5022760;28;20199;-87
2021/01/20 12:40:46;;;;;;;4.05;3.25;;;10.40;45.20;;;;;;5021668;28;20347;-84
2021/01/20 12:43:13;;;;;;;8.43;3.83;;;10.40;45.20;;;;;;5034447;28;20203;-86
2021/01/20 12:45:40;;;;;;;8.68;3.80;;;10.30;45.70;;;;;;5018199;28;20233;-85
2021/01/20 12:48:08;;;;;;;9.13;3.30;;;10.10;46.90;;;;;;5027831;28;20206;-84
2021/01/20 12:50:35;;;;;;;4.93;3.17;;;9.90;48.30;;;;;;5023478;28;20246;-85
2021/01/20 12:53:02;;;;;;;4.90;3.20;;;9.80;48.20;;;;;;5031807;28;20230;-85
2021/01/20 12:55:28;;;;;;;6.07;3.40;;;9.80;48.20;;;;;;5026189;28;20237;-84
2021/01/20 12:57:54;;;;;;;5.32;3.22;;;9.70;48.10;;;;;;5031012;28;20669;-85